sensor_id;sensor_type;location;lat;lon;timestamp;pressure;altitude;pressure_sealevel;temperature;humidity
84683;BME280;74905;44.124;18.116;2024-01-11T00:00:15;98249.13;;;-1.69;71.70
84683;BME280;74905;44.124;18.116;2024-01-11T00:02:41;98256.63;;;-1.75;71.92
84683;BME280;74905;44.124;18.116;2024-01-11T00:05:07;98244.75;;;-1.78;72.16
84683;BME280;74905;44.124;18.116;2024-01-11T00:07:33;98246.72;;;-1.78;72.25
84683;BME280;74905;44.124;18.116;2024-01-11T00:09:58;98239.25;;;-1.72;72.58
84683;BME280;74905;44.124;18.116;2024-01-11T00:12:25;98241.75;;;-1.74;72.05
84683;BME280;74905;44.124;18.116;2024-01-11T00:14:51;98246.72;;;-1.78;71.91
84683;BME280;74905;44.124;18.116;2024-01-11T00:17:16;98239.50;;;-1.76;72.25
84683;BME280;74905;44.124;18.116;2024-01-11T00:19:42;98253.66;;;-1.77;72.43
84683;BME280;74905;44.124;18.116;2024-01-11T00:22:08;98244.69;;;-1.72;71.61
84683;BME280;74905;44.124;18.116;2024-01-11T00:24:33;98246.19;;;-1.71;72.07
84683;BME280;74905;44.124;18.116;2024-01-11T00:26:59;98247.94;;;-1.74;72.00
84683;BME280;74905;44.124;18.116;2024-01-11T00:29:25;98247.47;;;-1.78;72.55
84683;BME280;74905;44.124;18.116;2024-01-11T00:31:50;98248.22;;;-1.77;72.73
84683;BME280;74905;44.124;18.116;2024-01-11T00:34:16;98249.44;;;-1.78;71.85
84683;BME280;74905;44.124;18.116;2024-01-11T00:36:42;98237.28;;;-1.77;72.50
84683;BME280;74905;44.124;18.116;2024-01-11T00:39:07;98239.47;;;-1.70;71.71
84683;BME280;74905;44.124;18.116;2024-01-11T00:41:33;98243.22;;;-1.73;71.54
84683;BME280;74905;44.124;18.116;2024-01-11T00:43:59;98233.03;;;-1.73;72.27
84683;BME280;74905;44.124;18.116;2024-01-11T00:46:24;98235.53;;;-1.75;72.58
84683;BME280;74905;44.124;18.116;2024-01-11T00:48:50;98240.53;;;-1.79;71.87
84683;BME280;74905;44.124;18.116;2024-01-11T00:51:16;98241.28;;;-1.78;72.07
84683;BME280;74905;44.124;18.116;2024-01-11T00:53:42;98240.31;;;-1.81;71.81
84683;BME280;74905;44.124;18.116;2024-01-11T00:56:18;98236.56;;;-1.78;71.74
84683;BME280;74905;44.124;18.116;2024-01-11T00:58:45;98233.03;;;-1.73;72.06
84683;BME280;74905;44.124;18.116;2024-01-11T01:01:11;98235.81;;;-1.78;71.91
84683;BME280;74905;44.124;18.116;2024-01-11T01:03:38;98242.00;;;-1.78;71.99
84683;BME280;74905;44.124;18.116;2024-01-11T01:06:04;98238.88;;;-1.88;71.89
84683;BME280;74905;44.124;18.116;2024-01-11T01:08:30;98239.84;;;-1.85;72.72
84683;BME280;74905;44.124;18.116;2024-01-11T01:10:56;98242.00;;;-1.78;72.40
84683;BME280;74905;44.124;18.116;2024-01-11T01:13:21;98238.34;;;-1.80;72.24
84683;BME280;74905;44.124;18.116;2024-01-11T01:15:47;98233.09;;;-1.78;72.45
84683;BME280;74905;44.124;18.116;2024-01-11T01:18:13;98231.78;;;-1.72;71.77
84683;BME280;74905;44.124;18.116;2024-01-11T01:20:38;98233.78;;;-1.72;71.71
84683;BME280;74905;44.124;18.116;2024-01-11T01:23:04;98229.50;;;-1.68;71.95
84683;BME280;74905;44.124;18.116;2024-01-11T01:25:31;98230.00;;;-1.69;72.09
84683;BME280;74905;44.124;18.116;2024-01-11T01:28:00;98225.59;;;-1.72;72.40
84683;BME280;74905;44.124;18.116;2024-01-11T01:30:27;98225.03;;;-1.65;71.76
84683;BME280;74905;44.124;18.116;2024-01-11T01:32:53;98223.31;;;-1.68;71.93
84683;BME280;74905;44.124;18.116;2024-01-11T01:35:19;98228.25;;;-1.67;72.14
84683;BME280;74905;44.124;18.116;2024-01-11T01:37:45;98238.94;;;-1.69;72.33
84683;BME280;74905;44.124;18.116;2024-01-11T01:40:14;98238.19;;;-1.69;72.08
84683;BME280;74905;44.124;18.116;2024-01-11T01:42:43;98233.56;;;-1.74;72.47
84683;BME280;74905;44.124;18.116;2024-01-11T01:45:12;98237.69;;;-1.68;72.57
84683;BME280;74905;44.124;18.116;2024-01-11T01:47:40;98237.41;;;-1.64;71.96
84683;BME280;74905;44.124;18.116;2024-01-11T01:50:08;98228.41;;;-1.59;71.96
84683;BME280;74905;44.124;18.116;2024-01-11T01:52:36;98234.09;;;-1.57;71.64
84683;BME280;74905;44.124;18.116;2024-01-11T01:55:03;98233.94;;;-1.65;71.60
84683;BME280;74905;44.124;18.116;2024-01-11T01:57:32;98234.97;;;-1.68;71.98
84683;BME280;74905;44.124;18.116;2024-01-11T02:00:00;98238.66;;;-1.65;72.03
84683;BME280;74905;44.124;18.116;2024-01-11T02:02:28;98232.53;;;-1.71;72.12
84683;BME280;74905;44.124;18.116;2024-01-11T02:04:56;98228.75;;;-1.68;72.25
84683;BME280;74905;44.124;18.116;2024-01-11T02:07:22;98235.25;;;-1.71;72.40
84683;BME280;74905;44.124;18.116;2024-01-11T02:09:50;98239.75;;;-1.74;72.32
84683;BME280;74905;44.124;18.116;2024-01-11T02:12:17;98224.91;;;-1.78;72.58
84683;BME280;74905;44.124;18.116;2024-01-11T02:14:43;98225.63;;;-1.78;72.28
84683;BME280;74905;44.124;18.116;2024-01-11T02:17:09;98218.44;;;-1.75;72.64
84683;BME280;74905;44.124;18.116;2024-01-11T02:19:35;98224.56;;;-1.69;72.35
84683;BME280;74905;44.124;18.116;2024-01-11T02:22:06;98223.38;;;-1.74;72.50
84683;BME280;74905;44.124;18.116;2024-01-11T02:24:33;98220.81;;;-1.66;72.34
84683;BME280;74905;44.124;18.116;2024-01-11T02:27:04;98209.63;;;-1.63;72.00
84683;BME280;74905;44.124;18.116;2024-01-11T02:29:32;98213.13;;;-1.68;72.12
84683;BME280;74905;44.124;18.116;2024-01-11T02:32:00;98214.03;;;-1.60;72.04
84683;BME280;74905;44.124;18.116;2024-01-11T02:34:27;98210.06;;;-1.59;71.86
84683;BME280;74905;44.124;18.116;2024-01-11T02:36:56;98208.88;;;-1.63;71.56
84683;BME280;74905;44.124;18.116;2024-01-11T02:39:23;98207.84;;;-1.60;71.88
84683;BME280;74905;44.124;18.116;2024-01-11T02:41:54;98210.56;;;-1.60;71.95
84683;BME280;74905;44.124;18.116;2024-01-11T02:44:20;98207.41;;;-1.64;71.89
84683;BME280;74905;44.124;18.116;2024-01-11T02:46:45;98206.66;;;-1.65;72.29
84683;BME280;74905;44.124;18.116;2024-01-11T02:49:11;98201.94;;;-1.64;72.37
84683;BME280;74905;44.124;18.116;2024-01-11T02:51:37;98211.84;;;-1.61;72.23
84683;BME280;74905;44.124;18.116;2024-01-11T02:54:03;98207.84;;;-1.60;72.21
84683;BME280;74905;44.124;18.116;2024-01-11T02:56:28;98204.09;;;-1.57;71.67
84683;BME280;74905;44.124;18.116;2024-01-11T02:58:54;98201.88;;;-1.59;71.57
84683;BME280;74905;44.124;18.116;2024-01-11T03:01:20;98196.91;;;-1.60;71.56
84683;BME280;74905;44.124;18.116;2024-01-11T03:03:46;98203.41;;;-1.63;72.12
84683;BME280;74905;44.124;18.116;2024-01-11T03:06:11;98201.94;;;-1.64;72.21
84683;BME280;74905;44.124;18.116;2024-01-11T03:08:37;98192.94;;;-1.59;72.20
84683;BME280;74905;44.124;18.116;2024-01-11T03:11:03;98201.19;;;-1.65;72.11
84683;BME280;74905;44.124;18.116;2024-01-11T03:13:29;98193.75;;;-1.64;72.15
84683;BME280;74905;44.124;18.116;2024-01-11T03:15:55;98190.00;;;-1.61;71.69
84683;BME280;74905;44.124;18.116;2024-01-11T03:18:20;98185.34;;;-1.66;72.08
84683;BME280;74905;44.124;18.116;2024-01-11T03:20:46;98189.25;;;-1.62;72.11
84683;BME280;74905;44.124;18.116;2024-01-11T03:23:12;98191.25;;;-1.62;71.67
84683;BME280;74905;44.124;18.116;2024-01-11T03:25:37;98185.72;;;-1.57;71.88
84683;BME280;74905;44.124;18.116;2024-01-11T03:28:03;98184.97;;;-1.57;71.93
84683;BME280;74905;44.124;18.116;2024-01-11T03:30:30;98183.00;;;-1.57;72.04
84683;BME280;74905;44.124;18.116;2024-01-11T03:32:55;98184.25;;;-1.58;72.42
84683;BME280;74905;44.124;18.116;2024-01-11T03:35:21;98180.53;;;-1.60;72.05
84683;BME280;74905;44.124;18.116;2024-01-11T03:37:47;98173.63;;;-1.61;72.28
84683;BME280;74905;44.124;18.116;2024-01-11T03:40:13;98166.69;;;-1.62;71.94
84683;BME280;74905;44.124;18.116;2024-01-11T03:42:39;98171.41;;;-1.63;72.22
84683;BME280;74905;44.124;18.116;2024-01-11T03:45:05;98172.88;;;-1.62;71.73
84683;BME280;74905;44.124;18.116;2024-01-11T03:47:31;98176.06;;;-1.58;72.30
84683;BME280;74905;44.124;18.116;2024-01-11T03:49:57;98161.22;;;-1.62;72.01
84683;BME280;74905;44.124;18.116;2024-01-11T03:52:22;98167.13;;;-1.58;71.64
84683;BME280;74905;44.124;18.116;2024-01-11T03:54:48;98171.06;;;-1.54;71.76
84683;BME280;74905;44.124;18.116;2024-01-11T03:57:14;98153.69;;;-1.56;72.06
84683;BME280;74905;44.124;18.116;2024-01-11T03:59:40;98164.34;;;-1.53;71.73
84683;BME280;74905;44.124;18.116;2024-01-11T04:02:06;98155.69;;;-1.57;71.94
84683;BME280;74905;44.124;18.116;2024-01-11T04:04:33;98151.44;;;-1.52;71.78
84683;BME280;74905;44.124;18.116;2024-01-11T04:06:58;98154.38;;;-1.50;71.62
84683;BME280;74905;44.124;18.116;2024-01-11T04:09:24;98158.06;;;-1.47;71.59
84683;BME280;74905;44.124;18.116;2024-01-11T04:11:50;98152.59;;;-1.47;71.28
84683;BME280;74905;44.124;18.116;2024-01-11T04:14:16;98154.97;;;-1.57;71.85
84683;BME280;74905;44.124;18.116;2024-01-11T04:16:42;98157.63;;;-1.52;71.81
84683;BME280;74905;44.124;18.116;2024-01-11T04:19:08;98152.59;;;-1.47;72.25
84683;BME280;74905;44.124;18.116;2024-01-11T04:21:34;98156.16;;;-1.53;71.55
84683;BME280;74905;44.124;18.116;2024-01-11T04:24:00;98161.53;;;-1.47;71.90
84683;BME280;74905;44.124;18.116;2024-01-11T04:26:26;98152.09;;;-1.46;71.40
84683;BME280;74905;44.124;18.116;2024-01-11T04:28:52;98147.09;;;-1.42;71.57
84683;BME280;74905;44.124;18.116;2024-01-11T04:31:19;98151.94;;;-1.35;72.01
84683;BME280;74905;44.124;18.116;2024-01-11T04:33:45;98153.94;;;-1.35;71.51
84683;BME280;74905;44.124;18.116;2024-01-11T04:36:11;98150.00;;;-1.40;71.92
84683;BME280;74905;44.124;18.116;2024-01-11T04:38:38;98151.72;;;-1.37;71.84
84683;BME280;74905;44.124;18.116;2024-01-11T04:41:13;98143.63;;;-1.42;71.26
84683;BME280;74905;44.124;18.116;2024-01-11T04:43:43;98140.16;;;-1.43;71.56
84683;BME280;74905;44.124;18.116;2024-01-11T04:46:19;98149.13;;;-1.48;72.00
84683;BME280;74905;44.124;18.116;2024-01-11T04:48:46;98148.25;;;-1.56;72.52
84683;BME280;74905;44.124;18.116;2024-01-11T04:51:13;98149.13;;;-1.48;72.85
84683;BME280;74905;44.124;18.116;2024-01-11T04:53:39;98159.47;;;-1.41;72.18
84683;BME280;74905;44.124;18.116;2024-01-11T04:56:10;98152.97;;;-1.38;71.77
84683;BME280;74905;44.124;18.116;2024-01-11T04:58:37;98153.44;;;-1.34;71.61
84683;BME280;74905;44.124;18.116;2024-01-11T05:01:05;98159.63;;;-1.33;71.63
84683;BME280;74905;44.124;18.116;2024-01-11T05:03:31;98155.09;;;-1.31;72.20
84683;BME280;74905;44.124;18.116;2024-01-11T05:05:58;98159.25;;;-1.24;72.09
84683;BME280;74905;44.124;18.116;2024-01-11T05:08:25;98150.00;;;-1.21;72.05
84683;BME280;74905;44.124;18.116;2024-01-11T05:10:51;98152.59;;;-1.10;71.32
84683;BME280;74905;44.124;18.116;2024-01-11T05:13:17;98150.22;;;-1.00;69.73
84683;BME280;74905;44.124;18.116;2024-01-11T05:15:44;98142.81;;;-0.87;69.25
84683;BME280;74905;44.124;18.116;2024-01-11T05:18:09;98143.47;;;-0.81;68.17
84683;BME280;74905;44.124;18.116;2024-01-11T05:20:36;98144.72;;;-0.82;67.32
84683;BME280;74905;44.124;18.116;2024-01-11T05:23:02;98141.25;;;-0.82;66.34
84683;BME280;74905;44.124;18.116;2024-01-11T05:25:29;98139.56;;;-0.85;66.26
84683;BME280;74905;44.124;18.116;2024-01-11T05:28:03;98141.88;;;-0.89;66.88
84683;BME280;74905;44.124;18.116;2024-01-11T05:30:29;98134.47;;;-0.94;67.54
84683;BME280;74905;44.124;18.116;2024-01-11T05:32:55;98135.94;;;-0.93;66.60
84683;BME280;74905;44.124;18.116;2024-01-11T05:35:21;98134.47;;;-0.94;67.05
84683;BME280;74905;44.124;18.116;2024-01-11T05:37:50;98132.56;;;-0.99;67.50
84683;BME280;74905;44.124;18.116;2024-01-11T05:40:16;98126.66;;;-1.03;66.85
84683;BME280;74905;44.124;18.116;2024-01-11T05:42:41;98127.28;;;-1.10;67.20
84683;BME280;74905;44.124;18.116;2024-01-11T05:45:07;98125.59;;;-1.14;66.85
84683;BME280;74905;44.124;18.116;2024-01-11T05:47:33;98121.94;;;-1.03;66.79
84683;BME280;74905;44.124;18.116;2024-01-11T05:49:59;98124.25;;;-1.07;67.09
84683;BME280;74905;44.124;18.116;2024-01-11T05:52:25;98115.31;;;-1.07;67.19
84683;BME280;74905;44.124;18.116;2024-01-11T05:54:50;98118.03;;;-1.07;67.09
84683;BME280;74905;44.124;18.116;2024-01-11T05:57:16;98118.34;;;-1.11;66.75
84683;BME280;74905;44.124;18.116;2024-01-11T05:59:45;98117.41;;;-1.14;66.88
84683;BME280;74905;44.124;18.116;2024-01-11T06:02:11;98120.56;;;-1.09;67.11
84683;BME280;74905;44.124;18.116;2024-01-11T06:04:37;98119.00;;;-1.05;66.96
84683;BME280;74905;44.124;18.116;2024-01-11T06:07:03;98123.50;;;-1.07;66.73
84683;BME280;74905;44.124;18.116;2024-01-11T06:09:29;98120.50;;;-1.04;67.05
84683;BME280;74905;44.124;18.116;2024-01-11T06:11:55;98125.41;;;-1.02;66.94
84683;BME280;74905;44.124;18.116;2024-01-11T06:14:20;98120.03;;;-1.08;66.30
84683;BME280;74905;44.124;18.116;2024-01-11T06:16:46;98119.59;;;-1.12;66.37
84683;BME280;74905;44.124;18.116;2024-01-11T06:19:12;98115.84;;;-1.09;66.67
84683;BME280;74905;44.124;18.116;2024-01-11T06:21:38;98115.31;;;-1.07;66.90
84683;BME280;74905;44.124;18.116;2024-01-11T06:24:04;98114.81;;;-1.06;66.38
84683;BME280;74905;44.124;18.116;2024-01-11T06:26:29;98122.09;;;-0.95;66.55
84683;BME280;74905;44.124;18.116;2024-01-11T06:28:55;98125.47;;;-0.89;66.07
84683;BME280;74905;44.124;18.116;2024-01-11T06:31:21;98125.47;;;-0.89;65.28
84683;BME280;74905;44.124;18.116;2024-01-11T06:33:47;98118.75;;;-0.88;65.79
84683;BME280;74905;44.124;18.116;2024-01-11T06:36:12;98112.63;;;-0.94;65.21
84683;BME280;74905;44.124;18.116;2024-01-11T06:38:38;98117.88;;;-0.96;65.64
84683;BME280;74905;44.124;18.116;2024-01-11T06:41:04;98121.03;;;-0.92;66.10
84683;BME280;74905;44.124;18.116;2024-01-11T06:43:29;98113.28;;;-0.88;65.38
84683;BME280;74905;44.124;18.116;2024-01-11T06:45:55;98112.41;;;-0.96;65.24
84683;BME280;74905;44.124;18.116;2024-01-11T06:48:21;98117.66;;;-0.98;65.69
84683;BME280;74905;44.124;18.116;2024-01-11T06:53:17;98124.66;;;-1.03;65.84
84683;BME280;74905;44.124;18.116;2024-01-11T06:55:43;98126.25;;;-1.07;65.86
84683;BME280;74905;44.124;18.116;2024-01-11T06:58:09;98122.09;;;-0.95;65.74
84683;BME280;74905;44.124;18.116;2024-01-11T07:00:35;98119.72;;;-0.86;65.38
84683;BME280;74905;44.124;18.116;2024-01-11T07:03:01;98116.25;;;-0.73;65.31
84683;BME280;74905;44.124;18.116;2024-01-11T07:05:28;98119.94;;;-0.70;65.34
84683;BME280;74905;44.124;18.116;2024-01-11T07:07:54;98123.31;;;-0.64;65.33
84683;BME280;74905;44.124;18.116;2024-01-11T07:10:20;98122.41;;;-0.54;64.67
84683;BME280;74905;44.124;18.116;2024-01-11T07:12:45;98122.63;;;-0.52;64.67
84683;BME280;74905;44.124;18.116;2024-01-11T07:15:13;98125.97;;;-0.59;64.43
84683;BME280;74905;44.124;18.116;2024-01-11T07:17:40;98120.50;;;-0.59;65.22
84683;BME280;74905;44.124;18.116;2024-01-11T07:20:06;98127.66;;;-0.56;64.73
84683;BME280;74905;44.124;18.116;2024-01-11T07:22:33;98132.03;;;-0.66;64.01
84683;BME280;74905;44.124;18.116;2024-01-11T07:24:58;98130.25;;;-0.63;64.17
84683;BME280;74905;44.124;18.116;2024-01-11T07:27:26;98132.78;;;-0.65;64.63
84683;BME280;74905;44.124;18.116;2024-01-11T07:29:52;98130.47;;;-0.61;63.54
84683;BME280;74905;44.124;18.116;2024-01-11T07:32:17;98129.94;;;-0.73;64.67
84683;BME280;74905;44.124;18.116;2024-01-11T07:34:43;98133.75;;;-0.63;64.33
84683;BME280;74905;44.124;18.116;2024-01-11T07:37:09;98130.38;;;-0.56;64.63
84683;BME280;74905;44.124;18.116;2024-01-11T07:39:34;98141.47;;;-0.48;63.95
84683;BME280;74905;44.124;18.116;2024-01-11T07:42:01;98137.78;;;-0.51;63.96
84683;BME280;74905;44.124;18.116;2024-01-11T07:44:28;98142.38;;;-0.59;64.49
84683;BME280;74905;44.124;18.116;2024-01-11T07:46:53;98142.41;;;-0.46;64.32
84683;BME280;74905;44.124;18.116;2024-01-11T07:49:19;98144.84;;;-0.42;63.25
84683;BME280;74905;44.124;18.116;2024-01-11T07:51:45;98147.69;;;-0.34;63.50
84683;BME280;74905;44.124;18.116;2024-01-11T07:54:11;98149.38;;;-0.31;63.46
84683;BME280;74905;44.124;18.116;2024-01-11T07:56:37;98145.78;;;-0.26;62.97
84683;BME280;74905;44.124;18.116;2024-01-11T07:59:03;98140.75;;;-0.22;62.33
84683;BME280;74905;44.124;18.116;2024-01-11T08:01:29;98143.91;;;-0.18;62.72
84683;BME280;74905;44.124;18.116;2024-01-11T08:03:55;98146.13;;;-0.17;62.77
84683;BME280;74905;44.124;18.116;2024-01-11T08:06:20;98146.22;;;-0.09;62.00
84683;BME280;74905;44.124;18.116;2024-01-11T08:08:46;98134.97;;;-0.06;62.33
84683;BME280;74905;44.124;18.116;2024-01-11T08:11:17;98137.94;;;-0.04;62.53
84683;BME280;74905;44.124;18.116;2024-01-11T08:13:43;98138.66;;;-0.03;62.17
84683;BME280;74905;44.124;18.116;2024-01-11T08:16:15;98139.28;;;0.03;62.17
84683;BME280;74905;44.124;18.116;2024-01-11T08:18:42;98142.03;;;0.03;62.63
84683;BME280;74905;44.124;18.116;2024-01-11T08:21:07;98139.81;;;0.02;62.38
84683;BME280;74905;44.124;18.116;2024-01-11T08:26:06;98140.78;;;0.17;62.47
84683;BME280;74905;44.124;18.116;2024-01-11T08:28:32;98145.09;;;0.13;61.54
84683;BME280;74905;44.124;18.116;2024-01-11T08:30:58;98145.81;;;0.13;62.18
84683;BME280;74905;44.124;18.116;2024-01-11T08:33:23;98143.28;;;0.15;62.07
84683;BME280;74905;44.124;18.116;2024-01-11T08:35:49;98141.59;;;0.12;61.31
84683;BME280;74905;44.124;18.116;2024-01-11T08:38:14;98132.56;;;0.17;62.17
84683;BME280;74905;44.124;18.116;2024-01-11T08:40:40;98148.56;;;0.26;61.99
84683;BME280;74905;44.124;18.116;2024-01-11T08:43:06;98140.97;;;0.32;61.27
84683;BME280;74905;44.124;18.116;2024-01-11T08:45:32;98135.19;;;0.23;61.16
84683;BME280;74905;44.124;18.116;2024-01-11T08:47:57;98139.28;;;0.29;61.70
84683;BME280;74905;44.124;18.116;2024-01-11T08:50:23;98152.34;;;0.23;61.86
84683;BME280;74905;44.124;18.116;2024-01-11T08:52:49;98146.66;;;0.21;61.16
84683;BME280;74905;44.124;18.116;2024-01-11T08:55:15;98151.06;;;0.24;61.20
84683;BME280;74905;44.124;18.116;2024-01-11T08:57:41;98145.81;;;0.26;61.04
84683;BME280;74905;44.124;18.116;2024-01-11T09:00:07;98134.66;;;0.24;60.56
84683;BME280;74905;44.124;18.116;2024-01-11T09:02:32;98133.59;;;0.27;61.03
84683;BME280;74905;44.124;18.116;2024-01-11T09:04:58;98134.22;;;0.20;62.15
84683;BME280;74905;44.124;18.116;2024-01-11T09:07:26;98136.84;;;0.39;61.15
84683;BME280;74905;44.124;18.116;2024-01-11T09:09:51;98138.00;;;0.44;61.00
84683;BME280;74905;44.124;18.116;2024-01-11T09:12:19;98125.78;;;0.45;61.12
84683;BME280;74905;44.124;18.116;2024-01-11T09:14:45;98124.00;;;0.34;60.79
84683;BME280;74905;44.124;18.116;2024-01-11T09:17:11;98129.78;;;0.44;60.45
84683;BME280;74905;44.124;18.116;2024-01-11T09:19:36;98131.47;;;0.47;61.15
84683;BME280;74905;44.124;18.116;2024-01-11T09:22:05;98127.06;;;0.44;61.07
84683;BME280;74905;44.124;18.116;2024-01-11T09:24:31;98117.03;;;0.46;60.52
84683;BME280;74905;44.124;18.116;2024-01-11T09:26:56;98114.84;;;0.31;59.96
84683;BME280;74905;44.124;18.116;2024-01-11T09:29:22;98120.41;;;0.39;59.98
84683;BME280;74905;44.124;18.116;2024-01-11T09:31:48;98114.41;;;0.41;61.00
84683;BME280;74905;44.124;18.116;2024-01-11T09:34:13;98110.00;;;0.38;61.55
84683;BME280;74905;44.124;18.116;2024-01-11T09:36:39;98107.28;;;0.38;60.38
84683;BME280;74905;44.124;18.116;2024-01-11T09:39:05;98101.16;;;0.45;60.43
84683;BME280;74905;44.124;18.116;2024-01-11T09:41:36;98110.53;;;0.36;60.64
84683;BME280;74905;44.124;18.116;2024-01-11T09:44:04;98101.44;;;0.54;59.90
84683;BME280;74905;44.124;18.116;2024-01-11T09:46:30;98095.09;;;0.59;59.13
84683;BME280;74905;44.124;18.116;2024-01-11T09:48:57;98085.91;;;0.36;59.86
84683;BME280;74905;44.124;18.116;2024-01-11T09:51:25;98083.97;;;0.44;60.27
84683;BME280;74905;44.124;18.116;2024-01-11T09:53:51;98084.47;;;0.56;60.97
84683;BME280;74905;44.124;18.116;2024-01-11T09:56:20;98077.63;;;0.49;60.28
84683;BME280;74905;44.124;18.116;2024-01-11T09:58:47;98077.84;;;0.51;60.20
84683;BME280;74905;44.124;18.116;2024-01-11T10:01:16;98074.06;;;0.54;59.44
84683;BME280;74905;44.124;18.116;2024-01-11T10:03:44;98066.97;;;0.59;59.28
84683;BME280;74905;44.124;18.116;2024-01-11T10:06:11;98062.00;;;0.57;60.00
84683;BME280;74905;44.124;18.116;2024-01-11T10:08:37;98062.72;;;0.37;60.57
84683;BME280;74905;44.124;18.116;2024-01-11T10:11:04;98061.94;;;0.50;60.08
84683;BME280;74905;44.124;18.116;2024-01-11T10:13:32;98062.00;;;0.57;60.15
84683;BME280;74905;44.124;18.116;2024-01-11T10:16:11;98061.69;;;0.61;59.66
84683;BME280;74905;44.124;18.116;2024-01-11T10:18:43;98060.50;;;0.69;58.88
84683;BME280;74905;44.124;18.116;2024-01-11T10:21:09;98049.03;;;0.71;58.87
84683;BME280;74905;44.124;18.116;2024-01-11T10:23:36;98057.91;;;0.64;59.92
84683;BME280;74905;44.124;18.116;2024-01-11T10:26:02;98054.28;;;0.69;58.56
84683;BME280;74905;44.124;18.116;2024-01-11T10:28:28;98053.06;;;0.57;59.46
84683;BME280;74905;44.124;18.116;2024-01-11T10:30:54;98046.66;;;0.54;58.91
84683;BME280;74905;44.124;18.116;2024-01-11T10:33:21;98042.16;;;0.44;59.40
84683;BME280;74905;44.124;18.116;2024-01-11T10:35:48;98031.59;;;0.48;59.80
84683;BME280;74905;44.124;18.116;2024-01-11T10:38:17;98028.75;;;0.53;58.96
84683;BME280;74905;44.124;18.116;2024-01-11T10:40:43;98027.81;;;0.51;59.52
84683;BME280;74905;44.124;18.116;2024-01-11T10:43:10;98033.72;;;0.55;60.07
84683;BME280;74905;44.124;18.116;2024-01-11T10:45:37;98020.63;;;0.61;58.67
84683;BME280;74905;44.124;18.116;2024-01-11T10:48:17;98017.03;;;0.66;59.18
84683;BME280;74905;44.124;18.116;2024-01-11T10:50:44;98017.94;;;0.68;58.88
84683;BME280;74905;44.124;18.116;2024-01-11T10:53:28;98010.94;;;0.81;59.42
84683;BME280;74905;44.124;18.116;2024-01-11T10:55:58;98010.53;;;0.77;58.42
84683;BME280;74905;44.124;18.116;2024-01-11T10:58:25;98000.84;;;0.96;58.66
84683;BME280;74905;44.124;18.116;2024-01-11T11:00:53;97994.97;;;0.92;58.66
84683;BME280;74905;44.124;18.116;2024-01-11T11:03:20;97990.88;;;0.86;58.46
84683;BME280;74905;44.124;18.116;2024-01-11T11:05:48;97992.88;;;0.85;59.00
84683;BME280;74905;44.124;18.116;2024-01-11T11:08:18;97993.25;;;0.82;58.81
84683;BME280;74905;44.124;18.116;2024-01-11T11:10:46;97991.63;;;0.86;58.21
84683;BME280;74905;44.124;18.116;2024-01-11T11:13:14;97990.75;;;0.91;59.09
84683;BME280;74905;44.124;18.116;2024-01-11T11:15:45;97988.41;;;0.95;58.08
84683;BME280;74905;44.124;18.116;2024-01-11T11:18:13;97988.75;;;0.92;57.88
84683;BME280;74905;44.124;18.116;2024-01-11T11:20:39;97974.84;;;0.69;57.78
84683;BME280;74905;44.124;18.116;2024-01-11T11:23:08;97976.38;;;0.57;59.61
84683;BME280;74905;44.124;18.116;2024-01-11T11:25:40;97962.91;;;0.59;59.45
84683;BME280;74905;44.124;18.116;2024-01-11T11:28:06;97954.94;;;0.48;59.34
84683;BME280;74905;44.124;18.116;2024-01-11T11:30:45;97951.66;;;0.28;60.18
84683;BME280;74905;44.124;18.116;2024-01-11T11:35:48;97946.41;;;0.72;58.83
84683;BME280;74905;44.124;18.116;2024-01-11T11:38:20;97947.03;;;0.86;59.14
84683;BME280;74905;44.124;18.116;2024-01-11T11:40:47;97947.44;;;0.90;58.76
84683;BME280;74905;44.124;18.116;2024-01-11T11:43:17;97942.50;;;0.88;59.36
84683;BME280;74905;44.124;18.116;2024-01-11T11:45:45;97932.94;;;1.02;57.58
84683;BME280;74905;44.124;18.116;2024-01-11T11:51:11;97924.00;;;0.81;58.07
84683;BME280;74905;44.124;18.116;2024-01-11T11:53:38;97920.00;;;0.82;57.94
84683;BME280;74905;44.124;18.116;2024-01-11T11:56:04;97911.25;;;0.84;57.73
84683;BME280;74905;44.124;18.116;2024-01-11T11:58:32;97913.84;;;0.89;58.45
84683;BME280;74905;44.124;18.116;2024-01-11T12:00:59;97904.34;;;0.90;57.85
84683;BME280;74905;44.124;18.116;2024-01-11T12:03:29;97904.44;;;1.05;57.56
84683;BME280;74905;44.124;18.116;2024-01-11T12:05:55;97912.66;;;1.05;56.73
84683;BME280;74905;44.124;18.116;2024-01-11T12:08:21;97900.81;;;1.10;58.03
84683;BME280;74905;44.124;18.116;2024-01-11T12:10:47;97893.09;;;1.01;57.36
84683;BME280;74905;44.124;18.116;2024-01-11T12:13:13;97885.22;;;0.98;58.42
84683;BME280;74905;44.124;18.116;2024-01-11T12:15:40;97887.44;;;1.07;58.50
84683;BME280;74905;44.124;18.116;2024-01-11T12:18:06;97892.25;;;1.14;57.82
84683;BME280;74905;44.124;18.116;2024-01-11T12:20:35;97878.16;;;1.10;58.53
84683;BME280;74905;44.124;18.116;2024-01-11T12:23:02;97875.22;;;1.08;57.70
84683;BME280;74905;44.124;18.116;2024-01-11T12:25:28;97867.53;;;1.06;57.85
84683;BME280;74905;44.124;18.116;2024-01-11T12:27:57;97875.19;;;1.00;58.48
84683;BME280;74905;44.124;18.116;2024-01-11T12:30:24;97870.38;;;1.22;57.57
84683;BME280;74905;44.124;18.116;2024-01-11T12:32:50;97874.13;;;1.03;57.91
84683;BME280;74905;44.124;18.116;2024-01-11T12:35:17;97868.81;;;0.77;58.60
84683;BME280;74905;44.124;18.116;2024-01-11T12:37:55;97866.50;;;0.60;59.31
84683;BME280;74905;44.124;18.116;2024-01-11T12:40:24;97854.34;;;0.69;58.56
84683;BME280;74905;44.124;18.116;2024-01-11T12:42:49;97861.78;;;0.89;58.96
84683;BME280;74905;44.124;18.116;2024-01-11T12:45:19;97865.00;;;0.80;58.93
84683;BME280;74905;44.124;18.116;2024-01-11T12:47:45;97859.59;;;0.95;58.95
84683;BME280;74905;44.124;18.116;2024-01-11T12:50:11;97852.81;;;0.89;59.37
84683;BME280;74905;44.124;18.116;2024-01-11T12:52:38;97846.53;;;1.09;58.81
84683;BME280;74905;44.124;18.116;2024-01-11T12:55:06;97847.03;;;1.00;59.04
84683;BME280;74905;44.124;18.116;2024-01-11T12:57:32;97842.59;;;0.89;58.39
84683;BME280;74905;44.124;18.116;2024-01-11T13:00:12;97842.66;;;0.68;58.66